Time;durP1;ratioP1;P1;durP2;ratioP2;P2;SDS_P1;SDS_P2;PMS_P1;PMS_P2;Temp;Humidity;BMP_temperature;BMP_pressure;BME280_temperature;BME280_humidity;BME280_pressure;Samples;Min_cycle;Max_cycle;Signal;HPM_P1;HPM_P2
2022/02/02 00:02:36;;;;;;;35.55;8.27;;;;;;;8.28;73.94;99542.75;5065537;28;20032;-71
2022/02/02 00:05:17;;;;;;;23.13;6.53;;;;;;;8.26;74.18;99550.69;5064144;28;20460;-71
2022/02/02 00:07:59;;;;;;;22.65;7.95;;;;;;;8.25;74.28;99548.16;5064681;28;20060;-71
2022/02/02 00:11:18;;;;;;;26.42;6.25;;;;;;;8.23;74.61;99523.72;5063096;28;20066;-73
2022/02/02 00:16:04;;;;;;;20.98;6.03;;;;;;;8.24;73.92;99551.69;5063877;28;20044;-72
2022/02/02 00:21:08;;;;;;;21.08;7.68;;;;;;;8.22;73.97;99567.53;5064781;28;20086;-71
2022/02/02 00:23:41;;;;;;;23.48;6.00;;;;;;;8.23;74.65;99569.22;5061565;28;20025;-70
2022/02/02 00:26:12;;;;;;;26.25;6.88;;;;;;;8.23;74.04;99566.59;5056767;28;20105;-71
2022/02/02 00:28:44;;;;;;;27.00;5.68;;;;;;;8.24;74.38;99567.44;5063766;28;20041;-72
2022/02/02 00:31:15;;;;;;;19.02;6.20;;;;;;;8.22;74.11;99564.91;5064172;28;20442;-72
2022/02/02 00:33:46;;;;;;;21.85;6.03;;;;;;;8.20;74.58;99563.25;5062799;28;20410;-70
2022/02/02 00:36:17;;;;;;;26.67;5.80;;;;;;;8.50;74.49;99568.97;5067434;28;20036;-65
2022/02/02 00:38:43;;;;;;;24.27;5.95;;;;;;;8.69;72.68;99561.97;5067581;28;20036;-66
2022/02/02 00:41:08;;;;;;;21.40;6.40;;;;;;;8.61;72.49;99558.81;5067193;28;20037;-71
2022/02/02 00:43:34;;;;;;;24.67;5.95;;;;;;;8.51;72.29;99566.25;5048989;28;20029;-72
2022/02/02 00:45:59;;;;;;;25.60;7.40;;;;;;;8.42;73.12;99569.31;5049763;28;20440;-71
2022/02/02 00:48:27;;;;;;;21.50;5.50;;;;;;;8.34;72.87;99569.63;5050588;28;20123;-72
2022/02/02 00:50:53;;;;;;;22.63;7.22;;;;;;;8.30;73.05;99589.06;5051205;28;20037;-71
2022/02/02 00:53:19;;;;;;;28.48;8.25;;;;;;;8.26;73.58;99576.13;5048827;28;20548;-71
2022/02/02 00:55:44;;;;;;;24.58;6.65;;;;;;;8.22;73.80;99575.41;5047022;28;20051;-71
2022/02/02 00:58:11;;;;;;;22.77;6.10;;;;;;;8.20;73.77;99589.53;5047981;28;20039;-71
2022/02/02 01:00:37;;;;;;;25.08;6.78;;;;;;;8.17;73.77;99572.09;5048299;28;20029;-71
2022/02/02 01:03:03;;;;;;;27.30;6.53;;;;;;;8.17;73.98;99575.59;5048578;28;20048;-71
2022/02/02 01:05:28;;;;;;;18.30;5.90;;;;;;;8.17;73.45;99569.47;5047611;28;20057;-71
2022/02/02 01:08:22;;;;;;;28.80;7.85;;;;;;;8.14;74.22;99580.09;5047976;28;20040;-72
2022/02/02 01:11:17;;;;;;;17.33;5.75;;;;;;;8.12;74.04;99577.56;5039384;28;20037;-71
2022/02/02 01:17:08;;;;;;;21.83;6.85;;;;;;;8.07;74.33;99586.53;5048122;28;20083;-72
2022/02/02 01:19:15;;;;;;;17.90;6.32;;;;;;;8.05;73.98;99583.13;5048426;28;20575;-71
2022/02/02 01:21:57;;;;;;;22.88;7.75;;;;;;;8.06;74.86;99600.59;5044364;28;20418;-72
2022/02/02 01:29:50;;;;;;;26.25;6.47;;;;;;;7.97;74.56;99593.94;5059006;28;20102;-71
2022/02/02 01:32:16;;;;;;;22.42;6.60;;;;;;;7.96;74.47;99594.88;5052665;28;20486;-71
2022/02/02 01:34:41;;;;;;;21.85;5.05;;;;;;;7.95;74.97;99601.91;5047403;28;20029;-72
2022/02/02 01:37:07;;;;;;;17.35;5.50;;;;;;;7.92;74.81;99599.38;5048135;28;20033;-72
2022/02/02 01:39:33;;;;;;;31.88;6.85;;;;;;;7.93;74.84;99598.47;5047603;28;20029;-72
2022/02/02 01:42:01;;;;;;;23.23;6.72;;;;;;;7.91;74.38;99595.06;5048198;28;20039;-72
2022/02/02 01:44:39;;;;;;;25.15;6.20;;;;;;;7.91;74.49;99597.69;5047950;28;20047;-71
2022/02/02 01:47:06;;;;;;;25.13;6.63;;;;;;;7.92;74.45;99603.78;5047882;28;20032;-73
2022/02/02 01:57:50;;;;;;;28.38;6.93;;;;;;;7.90;74.67;99600.34;5047795;28;20444;-71
2022/02/02 02:00:14;;;;;;;23.67;5.78;;;;;;;7.91;75.16;99617.84;5047350;28;20033;-71
2022/02/02 02:02:39;;;;;;;30.52;6.35;;;;;;;7.91;74.56;99620.47;5024387;28;20058;-71
2022/02/02 02:05:06;;;;;;;17.38;5.60;;;;;;;7.91;74.94;99616.06;5047641;28;20110;-71
2022/02/02 02:07:31;;;;;;;20.85;5.95;;;;;;;7.89;74.24;99610.00;5048172;28;20565;-71
2022/02/02 02:09:58;;;;;;;26.95;6.95;;;;;;;7.88;74.52;99612.72;5048087;28;20120;-70
2022/02/02 02:12:28;;;;;;;22.80;7.00;;;;;;;7.88;74.92;99613.56;5063816;28;20494;-70
2022/02/02 02:14:58;;;;;;;27.20;6.22;;;;;;;7.86;74.71;99604.91;5063244;28;20029;-70
2022/02/02 02:17:25;;;;;;;30.05;6.35;;;;;;;7.83;74.58;99609.44;5060009;28;20036;-71
2022/02/02 02:19:52;;;;;;;22.17;5.43;;;;;;;7.84;74.38;99611.13;5047946;28;20061;-70
2022/02/02 02:22:28;;;;;;;23.20;7.97;;;;;;;7.82;74.92;99608.56;5044545;28;20037;-70
2022/02/02 02:24:53;;;;;;;32.88;7.63;;;;;;;7.81;74.91;99606.00;5066668;28;20051;-70
2022/02/02 02:27:22;;;;;;;19.73;5.80;;;;;;;7.78;75.21;99608.72;5067643;28;20125;-71
2022/02/02 02:57:01;;;;;;;19.83;7.25;;;;;;;7.68;75.31;99613.53;5046898;28;20154;-71
2022/02/02 02:59:47;;;;;;;23.05;5.55;;;;;;;7.68;75.29;99614.38;5047612;28;20783;-71
2022/02/02 04:07:17;;;;;;;28.48;8.27;;;;;;;7.60;75.18;99647.06;5069459;28;20043;-71
2022/02/02 04:09:43;;;;;;;25.65;6.22;;;;;;;7.59;75.41;99648.00;5070131;28;20043;-72
2022/02/02 04:12:35;;;;;;;23.38;6.50;;;;;;;7.59;75.21;99645.38;5070445;28;20064;-71
2022/02/02 04:58:10;;;;;;;18.27;5.75;;;;;;;7.61;75.18;99689.00;5068673;28;20075;-71
2022/02/02 05:11:25;;;;;;;34.20;8.40;;;;;;;7.64;74.74;99680.16;5066093;28;20044;-73
2022/02/02 05:16:32;;;;;;;25.55;7.20;;;;;;;7.61;75.07;99681.13;5050736;28;20115;-73
2022/02/02 05:19:40;;;;;;;37.97;8.30;;;;;;;7.59;75.02;99682.94;5048144;28;20166;-72
2022/02/02 05:44:21;;;;;;;38.13;9.00;;;;;;;7.56;75.23;99679.59;5005765;28;20109;-71
2022/02/02 05:49:54;;;;;;;26.45;6.97;;;;;;;7.55;75.62;99697.09;5048067;28;20094;-72
2022/02/02 05:52:19;;;;;;;32.83;9.45;;;;;;;7.52;75.66;99699.81;5053588;28;20061;-71
2022/02/02 05:54:44;;;;;;;27.60;6.85;;;;;;;7.55;75.87;99711.97;5045624;28;20061;-71
2022/02/02 05:57:15;;;;;;;31.08;8.90;;;;;;;7.57;75.68;99721.50;5047036;28;20048;-71
2022/02/02 05:59:44;;;;;;;34.58;8.82;;;;;;;7.56;76.09;99724.19;5046763;28;20095;-71
2022/02/02 06:02:14;;;;;;;19.42;6.50;;;;;;;7.57;75.83;99734.63;5055496;28;20041;-71
2022/02/02 06:04:47;;;;;;;23.38;7.88;;;;;;;7.59;75.84;99739.81;5050371;28;20041;-71
2022/02/02 06:07:14;;;;;;;30.73;7.22;;;;;;;7.61;75.80;99744.09;5053190;28;20059;-72
2022/02/02 06:09:43;;;;;;;23.05;7.70;;;;;;;7.63;75.91;99742.25;5055306;28;20037;-71
2022/02/02 06:12:09;;;;;;;29.35;7.28;;;;;;;7.62;76.15;99731.81;5047056;28;20543;-71
2022/02/02 06:14:38;;;;;;;16.17;5.57;;;;;;;7.66;75.93;99741.28;5048242;28;20036;-73
2022/02/02 06:17:07;;;;;;;16.52;7.13;;;;;;;7.66;76.26;99744.75;5045206;28;20021;-73
2022/02/02 06:19:32;;;;;;;30.05;8.10;;;;;;;7.68;76.31;99744.72;5042825;28;20429;-72
2022/02/02 06:22:15;;;;;;;23.48;7.75;;;;;;;7.67;76.57;99748.25;5046216;28;20227;-72
2022/02/02 06:24:56;;;;;;;25.52;7.30;;;;;;;7.67;76.09;99751.72;5046458;28;20064;-72
2022/02/02 06:27:26;;;;;;;24.55;6.60;;;;;;;7.67;76.04;99758.72;5041889;28;20038;-72
2022/02/02 06:30:09;;;;;;;29.50;8.32;;;;;;;7.66;76.37;99765.75;5047138;28;20029;-72
2022/02/02 06:32:50;;;;;;;30.30;8.45;;;;;;;7.65;76.11;99765.81;5047268;28;20041;-72
2022/02/02 06:35:17;;;;;;;27.70;8.25;;;;;;;7.65;76.16;99773.69;5046469;28;20579;-71
2022/02/02 06:37:44;;;;;;;29.05;8.45;;;;;;;7.64;76.51;99766.72;5046683;28;20037;-71
2022/02/02 06:40:11;;;;;;;19.77;6.78;;;;;;;7.63;76.23;99776.38;5047302;28;20058;-71
2022/02/02 06:42:38;;;;;;;24.50;7.22;;;;;;;7.62;76.17;99758.06;5047186;28;20044;-72
2022/02/02 06:45:06;;;;;;;29.02;7.38;;;;;;;7.63;76.10;99771.13;5043763;28;20029;-72
2022/02/02 06:47:32;;;;;;;30.77;6.63;;;;;;;7.64;75.96;99770.19;5044901;28;20075;-73
2022/02/02 06:50:07;;;;;;;34.28;8.77;;;;;;;7.64;76.16;99770.19;5048180;28;20037;-72
2022/02/02 06:52:47;;;;;;;36.53;7.88;;;;;;;7.66;76.28;99770.16;5048279;28;20040;-71
2022/02/02 06:55:32;;;;;;;28.60;8.05;;;;;;;7.67;76.25;99764.84;5049852;28;20037;-71
2022/02/02 06:58:06;;;;;;;24.20;6.55;;;;;;;7.67;76.27;99763.97;5053269;28;20453;-71
2022/02/02 07:01:05;;;;;;;28.48;7.55;;;;;;;7.63;76.17;99765.00;5051236;28;20485;-71
2022/02/02 07:03:56;;;;;;;39.00;10.65;;;;;;;7.63;76.12;99780.75;5050229;28;20041;-70
2022/02/02 07:06:40;;;;;;;27.55;9.00;;;;;;;7.60;76.20;99784.34;5049519;28;20494;-71
2022/02/02 07:09:26;;;;;;;33.58;8.40;;;;;;;7.60;76.48;99783.50;5058529;28;20053;-71
2022/02/02 07:12:18;;;;;;;30.17;7.53;;;;;;;7.61;76.87;99793.94;5068354;28;20039;-71
2022/02/02 07:20:25;;;;;;;18.17;5.45;;;;;;;7.59;76.74;99826.38;5062763;28;20037;-72
2022/02/02 07:28:26;;;;;;;21.25;8.52;;;;;;;7.63;76.34;99827.97;5050479;28;20033;-72
2022/02/02 07:31:07;;;;;;;24.52;7.57;;;;;;;7.63;76.58;99827.97;5051956;28;20029;-71
2022/02/02 07:33:38;;;;;;;29.08;6.90;;;;;;;7.67;76.32;99826.94;5050067;28;20486;-72
2022/02/02 07:38:38;;;;;;;27.35;8.07;;;;;;;7.70;76.24;99817.22;5050183;28;20033;-72
2022/02/02 07:41:06;;;;;;;30.88;9.60;;;;;;;7.72;75.61;99823.25;5050289;28;20029;-72
2022/02/02 07:43:36;;;;;;;24.75;9.35;;;;;;;7.72;76.26;99835.50;5049874;28;20086;-71
2022/02/02 07:46:05;;;;;;;25.52;7.28;;;;;;;7.69;76.45;99833.00;5048126;28;20095;-72
2022/02/02 07:48:38;;;;;;;29.85;7.57;;;;;;;7.72;76.43;99843.38;5054213;28;20040;-71
2022/02/02 07:51:05;;;;;;;27.02;7.47;;;;;;;7.73;76.29;99850.38;5049741;28;20114;-72
2022/02/02 07:53:40;;;;;;;24.17;7.57;;;;;;;7.73;76.45;99848.59;5068864;28;20119;-70
2022/02/02 07:56:12;;;;;;;23.52;7.70;;;;;;;7.75;76.50;99859.00;5068985;28;20106;-71
2022/02/02 07:58:41;;;;;;;29.42;7.53;;;;;;;7.71;76.64;99845.16;5069593;28;20109;-71
2022/02/02 08:01:07;;;;;;;26.00;7.55;;;;;;;7.73;76.57;99850.38;5058928;28;20036;-71
2022/02/02 08:03:38;;;;;;;16.52;6.97;;;;;;;7.76;76.94;99852.00;5050470;28;20478;-71
2022/02/02 08:06:06;;;;;;;25.38;7.68;;;;;;;7.78;76.62;99850.16;5049898;28;20144;-71
2022/02/02 08:08:35;;;;;;;18.70;7.47;;;;;;;7.78;76.67;99845.81;5049707;28;20041;-71
2022/02/02 08:11:05;;;;;;;28.17;8.38;;;;;;;7.78;76.50;99855.41;5049599;28;20047;-71
2022/02/02 08:13:42;;;;;;;31.48;8.57;;;;;;;7.79;76.71;99868.50;5048371;28;20059;-71
2022/02/02 08:16:12;;;;;;;25.58;7.90;;;;;;;7.77;76.82;99864.22;5049127;28;20083;-71
2022/02/02 08:18:41;;;;;;;22.65;8.82;;;;;;;7.76;77.15;99868.59;5049995;28;20029;-71
2022/02/02 08:21:07;;;;;;;26.38;7.97;;;;;;;7.73;77.32;99877.44;5049778;28;20498;-71
2022/02/02 08:23:32;;;;;;;17.92;7.65;;;;;;;7.74;77.21;99870.44;5051185;28;20032;-71
2022/02/02 08:26:00;;;;;;;23.65;7.00;;;;;;;7.80;77.64;99870.22;5068704;28;20082;-70
2022/02/02 08:28:26;;;;;;;18.38;6.50;;;;;;;7.86;77.41;99872.59;5069549;28;20055;-71
2022/02/02 08:30:51;;;;;;;16.85;6.43;;;;;;;7.91;77.05;99867.19;5069288;28;20040;-71
2022/02/02 08:33:25;;;;;;;23.17;7.00;;;;;;;7.95;77.01;99871.44;5069317;28;20082;-72
2022/02/02 08:35:54;;;;;;;26.05;7.28;;;;;;;7.92;77.05;99884.63;5068266;28;20089;-72
2022/02/02 08:41:05;;;;;;;20.02;7.05;;;;;;;7.99;77.27;99898.41;5069555;28;20031;-72
2022/02/02 08:43:38;;;;;;;47.08;10.50;;;;;;;8.03;76.83;99905.28;5069525;28;20033;-71
2022/02/02 08:46:06;;;;;;;21.80;6.65;;;;;;;8.00;77.33;99902.72;5068211;28;20059;-72
2022/02/02 08:48:32;;;;;;;39.35;10.55;;;;;;;8.04;77.22;99905.19;5059125;28;20041;-71
2022/02/02 08:51:09;;;;;;;36.22;7.43;;;;;;;8.08;76.52;99901.56;5064782;28;20598;-70
2022/02/02 08:54:06;;;;;;;22.45;6.38;;;;;;;8.10;77.20;99907.59;5068909;28;20024;-71
2022/02/02 08:59:00;;;;;;;28.55;8.07;;;;;;;8.16;77.04;99899.47;5069117;28;20431;-71
2022/02/02 09:01:29;;;;;;;23.25;5.88;;;;;;;8.13;76.98;99896.13;5068509;28;20098;-70
2022/02/02 09:06:38;;;;;;;26.90;7.50;;;;;;;8.12;77.03;99900.53;5051875;28;20083;-71
2022/02/02 09:09:14;;;;;;;22.45;7.05;;;;;;;8.14;76.85;99903.09;5048030;28;20445;-71
2022/02/02 09:25:41;;;;;;;23.40;8.23;;;;;;;8.45;76.30;99933.50;5046945;28;20047;-68
2022/02/02 09:36:16;;;;;;;21.25;6.15;;;;;;;8.62;74.76;99931.06;5055510;28;20033;-69
2022/02/02 09:38:42;;;;;;;16.95;5.93;;;;;;;8.65;75.09;99936.19;5048804;28;20052;-69
2022/02/02 09:43:49;;;;;;;24.63;7.10;;;;;;;8.60;74.57;99939.00;5047881;28;20040;-69
2022/02/02 09:46:19;;;;;;;;;;;;;;;8.57;74.98;99938.28;5063924;28;20483;-69
2022/02/02 09:48:52;;;;;;;22.13;7.40;;;;;;;8.56;75.37;99944.44;5050857;28;19920;-70
2022/02/02 09:51:41;;;;;;;20.75;6.53;;;;;;;8.53;75.48;99947.19;5053420;28;20040;-69
2022/02/02 10:08:36;;;;;;;19.10;7.57;;;;;;;8.74;74.35;99961.28;5036448;28;20514;-68
2022/02/02 10:11:06;;;;;;;23.63;8.00;;;;;;;8.78;74.51;99960.22;5063618;28;20040;-68
2022/02/02 10:16:17;;;;;;;24.58;9.48;;;;;;;8.87;74.38;99959.88;5043084;28;19978;-70
2022/02/02 10:18:42;;;;;;;20.50;8.85;;;;;;;9.14;73.59;99957.91;5041728;28;20029;-70
2022/02/02 10:21:08;;;;;;;21.25;8.93;;;;;;;9.17;73.70;99949.88;5042285;28;20041;-70
2022/02/02 10:23:35;;;;;;;15.48;8.05;;;;;;;9.12;73.60;99961.53;5041120;28;20067;-70
2022/02/02 10:26:14;;;;;;;19.95;9.23;;;;;;;9.14;73.25;99968.44;5040679;28;20041;-71
2022/02/02 10:28:40;;;;;;;26.92;9.93;;;;;;;9.16;73.41;99965.75;5041886;28;20041;-71
2022/02/02 10:31:06;;;;;;;18.08;7.97;;;;;;;9.10;73.67;99977.34;5041871;28;20039;-70
2022/02/02 10:33:33;;;;;;;21.50;8.73;;;;;;;9.10;74.21;99981.78;5041655;28;20086;-69
2022/02/02 10:36:13;;;;;;;17.98;8.43;;;;;;;9.02;74.66;99975.03;5040987;28;20041;-70
2022/02/02 10:38:49;;;;;;;22.30;8.80;;;;;;;9.00;74.56;99983.91;5040688;28;20036;-70
2022/02/02 10:43:53;;;;;;;21.45;8.55;;;;;;;8.97;74.10;99986.66;5041530;28;20077;-70
2022/02/02 10:46:32;;;;;;;26.20;10.18;;;;;;;9.05;74.86;99991.63;5039965;28;20041;-69
2022/02/02 10:49:11;;;;;;;24.73;10.02;;;;;;;9.15;74.23;99991.19;5041753;28;20037;-70
2022/02/02 10:51:47;;;;;;;17.70;9.45;;;;;;;9.19;74.46;99992.78;5045117;28;20040;-70
2022/02/02 10:56:51;;;;;;;20.35;10.02;;;;;;;9.49;73.69;99997.72;5045204;28;20028;-71
2022/02/02 11:06:35;;;;;;;22.73;9.32;;;;;;;9.59;72.83;100001.66;5042104;28;20029;-71
2022/02/02 11:07:18;;;;;;;23.95;10.02;;;;;;;9.56;72.33;100007.06;5041221;28;20402;-71
2022/02/02 11:09:49;;;;;;;31.13;9.57;;;;;;;9.55;72.63;100000.09;5038080;28;20037;-70
2022/02/02 11:12:17;;;;;;;27.70;10.45;;;;;;;9.63;71.94;100003.25;5060695;28;20562;-70
2022/02/02 11:15:02;;;;;;;23.20;8.52;;;;;;;9.71;71.39;100004.72;5060848;28;20788;-70
2022/02/02 11:17:29;;;;;;;16.05;9.45;;;;;;;9.83;71.78;100001.56;5061173;28;20060;-71
2022/02/02 11:20:04;;;;;;;19.35;8.73;;;;;;;9.93;70.58;100008.16;5061317;28;20746;-72
2022/02/02 11:22:32;;;;;;;21.48;8.65;;;;;;;9.91;69.88;100002.06;5061639;28;20770;-71
2022/02/02 11:25:17;;;;;;;18.35;7.40;;;;;;;9.97;69.83;100001.84;5060629;28;20033;-71
2022/02/02 11:27:45;;;;;;;21.60;8.53;;;;;;;9.92;70.22;100001.19;5060861;28;20047;-71
2022/02/02 11:30:23;;;;;;;22.02;8.35;;;;;;;9.99;69.64;100001.75;5060708;28;20751;-73
2022/02/02 11:32:52;;;;;;;18.10;7.68;;;;;;;9.99;69.83;100012.28;5061054;28;20792;-72
2022/02/02 11:35:46;;;;;;;28.70;9.50;;;;;;;10.00;69.13;99999.06;5063721;28;20033;-71
2022/02/02 11:38:25;;;;;;;25.48;9.85;;;;;;;10.06;69.18;100001.41;5064085;28;20036;-71
2022/02/02 11:41:16;;;;;;;24.55;7.10;;;;;;;10.10;68.54;99997.72;5064688;28;20094;-70
2022/02/02 11:46:45;;;;;;;13.45;7.07;;;;;;;10.14;68.38;99997.59;5063880;28;20044;-72
2022/02/02 11:49:21;;;;;;;21.55;7.00;;;;;;;10.12;68.49;99992.41;5064340;28;20421;-72
2022/02/02 11:51:53;;;;;;;15.77;7.40;;;;;;;10.08;68.71;99996.94;5065715;28;20044;-72
2022/02/02 11:54:40;;;;;;;21.35;6.93;;;;;;;10.08;67.92;99998.72;5064773;28;20044;-72
2022/02/02 11:57:12;;;;;;;23.98;7.20;;;;;;;9.96;68.59;100007.16;5065853;28;20041;-72
2022/02/02 11:59:38;;;;;;;22.65;8.30;;;;;;;9.96;68.87;100007.16;5064798;28;20040;-71
2022/02/02 12:02:19;;;;;;;17.70;7.00;;;;;;;10.02;68.03;100004.28;5064525;28;20040;-70
2022/02/02 12:05:26;;;;;;;16.05;6.68;;;;;;;10.05;67.57;99997.06;5063893;28;20763;-71
2022/02/02 12:20:26;;;;;;;26.00;7.00;;;;;;;10.10;67.04;99992.47;5064331;28;20074;-70
2022/02/02 12:57:39;;;;;;;13.60;6.18;;;;;;;10.47;64.93;99990.00;5040571;28;20036;-70
2022/02/02 13:00:11;;;;;;;;;;;;;;;10.43;64.85;99996.31;5043965;28;20147;-70
2022/02/02 13:02:42;;;;;;;28.08;7.55;;;;;;;10.46;64.98;100006.72;5043767;28;19912;-70
2022/02/02 13:05:10;;;;;;;24.90;8.80;;;;;;;10.39;65.06;100000.03;5044957;28;20037;-70
2022/02/02 13:07:41;;;;;;;29.05;9.38;;;;;;;10.30;65.64;99999.50;5043195;28;20552;-70
2022/02/02 13:10:12;;;;;;;26.67;7.72;;;;;;;10.12;66.05;100002.94;5042619;28;20042;-71
2022/02/02 13:18:03;;;;;;;25.23;7.93;;;;;;;10.28;66.49;99984.69;5046159;28;20029;-70
2022/02/02 13:26:21;;;;;;;19.05;7.07;;;;;;;10.39;67.05;99971.91;5047884;28;20071;-71
2022/02/02 13:34:37;;;;;;;28.10;8.00;;;;;;;10.27;67.27;99970.63;5041655;28;20040;-71
2022/02/02 13:37:41;;;;;;;25.15;8.13;;;;;;;10.12;66.06;99975.75;5042603;28;20028;-71
2022/02/02 13:42:56;;;;;;;24.08;6.10;;;;;;;9.91;67.41;99991.53;5043296;28;20041;-72
2022/02/02 13:57:10;;;;;;;17.65;6.60;;;;;;;9.99;68.78;100013.16;5057786;28;20490;-70
2022/02/02 14:01:49;;;;;;;19.73;7.60;;;;;;;10.01;69.05;100023.63;5042439;28;20382;-71
2022/02/02 14:31:26;;;;;;;19.92;6.05;;;;;;;9.74;71.49;100063.34;5041456;28;20090;-70
2022/02/02 14:33:53;;;;;;;19.67;7.13;;;;;;;9.78;71.77;100064.09;5040485;28;20608;-71
2022/02/02 14:36:22;;;;;;;24.77;6.68;;;;;;;9.81;72.53;100077.13;5041878;28;20036;-69
2022/02/02 14:41:48;;;;;;;16.67;6.22;;;;;;;9.77;72.29;100079.03;5042423;28;20457;-72
2022/02/02 14:44:20;;;;;;;19.75;5.43;;;;;;;9.77;72.58;100075.53;5044475;28;20143;-71
2022/02/02 14:46:58;;;;;;;16.85;6.22;;;;;;;9.79;72.20;100085.06;5042023;28;20112;-70
2022/02/02 14:52:10;;;;;;;17.42;5.25;;;;;;;9.69;72.94;100081.13;5048167;28;20039;-70
2022/02/02 14:54:50;;;;;;;10.55;4.65;;;;;;;9.64;73.03;100094.47;5059359;28;20036;-71
2022/02/02 15:06:27;;;;;;;17.33;5.13;;;;;;;9.54;73.73;100084.38;5041038;28;20055;-70
2022/02/02 15:31:57;;;;;;;12.60;6.43;;;;;;;9.32;74.65;100092.25;5052670;28;20032;-71
2022/02/02 15:34:33;;;;;;;17.55;6.13;;;;;;;9.25;74.84;100091.63;5064666;28;20055;-71
2022/02/02 15:37:19;;;;;;;;;;;;;;;9.18;75.74;100091.03;5065609;28;20039;-71
2022/02/02 15:39:51;;;;;;;11.90;6.05;;;;;;;9.11;75.75;100089.56;5057362;28;20346;-71
2022/02/02 15:42:29;;;;;;;19.85;8.80;;;;;;;9.09;75.98;100094.00;5045250;28;20039;-70
2022/02/02 15:58:12;;;;;;;17.67;7.63;;;;;;;8.89;77.43;100099.16;5034686;28;20133;-70
2022/02/02 16:06:10;;;;;;;17.70;5.78;;;;;;;8.88;77.61;100093.03;5043671;28;20037;-71
2022/02/02 16:08:38;;;;;;;22.63;7.05;;;;;;;8.85;78.04;100089.66;5052397;28;20077;-72
2022/02/02 16:19:18;;;;;;;13.35;7.03;;;;;;;8.81;78.06;100099.44;5048249;28;20044;-72
2022/02/02 16:37:46;;;;;;;16.40;6.50;;;;;;;8.71;79.50;100091.06;5050479;28;20025;-72
2022/02/02 16:40:16;;;;;;;12.07;6.13;;;;;;;8.69;78.85;100089.38;5046136;28;20442;-71
2022/02/02 16:45:28;;;;;;;12.30;6.32;;;;;;;8.64;79.85;100086.06;5044144;28;20075;-72
2022/02/02 16:47:54;;;;;;;9.88;6.15;;;;;;;8.63;80.32;100090.47;5040500;28;20037;-72
2022/02/02 16:50:24;;;;;;;12.88;6.97;;;;;;;8.59;79.67;100084.47;5044160;28;20036;-72
2022/02/02 16:52:54;;;;;;;11.80;6.25;;;;;;;8.59;80.29;100086.25;5043916;28;20037;-72
2022/02/02 16:55:34;;;;;;;11.48;6.72;;;;;;;8.57;80.67;100086.28;5043061;28;20048;-72
2022/02/02 17:24:11;;;;;;;14.68;8.25;;;;;;;8.55;80.06;100085.47;5044841;28;20103;-72
2022/02/02 17:30:59;;;;;;;13.52;9.90;;;;;;;8.28;82.37;100089.06;5044587;28;20087;-71
2022/02/02 17:36:18;;;;;;;15.98;11.57;;;;;;;8.34;81.66;100094.97;5041889;28;20043;-72
2022/02/02 17:38:57;;;;;;;20.10;12.02;;;;;;;8.35;81.96;100085.31;5051418;28;20088;-70
2022/02/02 18:19:03;;;;;;;23.02;14.82;;;;;;;8.43;83.01;100119.22;5060634;28;20044;-72
2022/02/02 18:21:30;;;;;;;19.90;14.93;;;;;;;8.44;83.05;100120.94;5062670;28;20129;-70
2022/02/02 18:26:31;;;;;;;18.52;14.00;;;;;;;8.49;83.09;100119.88;5061447;28;20028;-70
2022/02/02 18:29:15;;;;;;;19.73;15.18;;;;;;;8.53;82.52;100125.88;5048697;28;20132;-70
2022/02/02 18:34:18;;;;;;;16.35;14.25;;;;;;;8.54;82.71;100124.94;5041428;28;20087;-71
2022/02/02 18:36:56;;;;;;;16.88;12.60;;;;;;;8.54;82.59;100117.94;5040056;28;20133;-70
2022/02/02 18:47:33;;;;;;;16.52;12.52;;;;;;;8.55;82.99;100124.91;5046305;28;20748;-69
2022/02/02 19:00:06;;;;;;;18.30;14.25;;;;;;;8.57;82.71;100122.22;5049891;28;20041;-71
2022/02/02 19:05:55;;;;;;;20.52;13.93;;;;;;;8.53;83.50;100112.72;5024410;28;20038;-71
2022/02/02 19:14:54;;;;;;;21.70;15.68;;;;;;;8.55;83.37;100109.13;5063930;28;20048;-71
2022/02/02 20:01:47;;;;;;;22.05;15.70;;;;;;;8.66;84.08;100116.63;5048634;28;20094;-70
2022/02/02 20:08:41;;;;;;;26.55;18.30;;;;;;;8.73;84.09;100128.63;5049952;28;20045;-69
2022/02/02 20:11:16;;;;;;;22.40;17.73;;;;;;;8.74;84.61;100124.25;5048625;28;22484;-68
2022/02/02 20:13:42;;;;;;;27.45;18.90;;;;;;;8.73;84.94;100123.38;5046103;28;20143;-67
2022/02/02 20:16:07;;;;;;;24.95;17.58;;;;;;;8.73;84.87;100122.53;5048520;28;20119;-68
2022/02/02 20:18:38;;;;;;;31.17;19.63;;;;;;;8.72;85.25;100121.66;5049224;28;20548;-68
2022/02/02 20:21:07;;;;;;;23.15;18.25;;;;;;;8.70;85.65;100123.50;5047812;28;20163;-67
2022/02/02 20:23:39;;;;;;;23.52;17.02;;;;;;;8.70;86.44;100126.13;5045713;28;20033;-67
2022/02/02 20:26:06;;;;;;;22.67;15.80;;;;;;;8.70;86.85;100138.41;5048079;28;20037;-69
2022/02/02 20:28:31;;;;;;;24.40;17.55;;;;;;;8.65;87.09;100130.69;5049061;28;20040;-69
2022/02/02 20:30:57;;;;;;;20.95;16.33;;;;;;;8.60;87.68;100133.47;5049374;28;20029;-69
2022/02/02 20:33:22;;;;;;;20.17;15.80;;;;;;;8.62;87.51;100122.91;5049656;28;20402;-69
2022/02/02 20:35:48;;;;;;;23.02;15.52;;;;;;;8.60;87.22;100130.00;5048303;28;20055;-69
2022/02/02 20:38:13;;;;;;;23.15;17.75;;;;;;;8.60;87.12;100130.00;5031256;28;20028;-69
2022/02/02 20:40:39;;;;;;;21.60;16.63;;;;;;;8.59;87.49;100125.66;5048548;28;20052;-69
2022/02/02 20:43:11;;;;;;;20.98;15.38;;;;;;;8.60;87.40;100116.84;5049113;28;20039;-70
2022/02/02 21:04:48;;;;;;;28.52;18.38;;;;;;;8.65;87.32;100154.34;5048212;28;20047;-68
2022/02/02 21:07:36;;;;;;;22.75;15.10;;;;;;;8.63;87.55;100145.66;5065802;28;20033;-68
2022/02/02 21:10:06;;;;;;;21.08;15.15;;;;;;;8.62;87.58;100141.31;5043431;28;20314;-70
2022/02/02 21:15:27;;;;;;;19.05;15.50;;;;;;;8.61;87.70;100136.94;5049747;28;20495;-69
2022/02/02 21:17:55;;;;;;;17.95;14.23;;;;;;;8.63;87.34;100139.53;5050201;28;20495;-69
2022/02/02 21:22:57;;;;;;;20.00;15.02;;;;;;;8.59;87.71;100142.28;5044530;28;20036;-69
2022/02/02 21:27:57;;;;;;;21.75;15.93;;;;;;;8.58;87.58;100150.22;5058333;28;20078;-69
2022/02/02 21:30:23;;;;;;;19.90;14.98;;;;;;;8.58;87.92;100145.81;5048500;28;20052;-71
2022/02/02 21:32:49;;;;;;;19.42;14.85;;;;;;;8.56;87.92;100157.28;5044343;28;20048;-71
2022/02/02 21:35:16;;;;;;;21.05;16.05;;;;;;;8.55;87.73;100147.69;5050511;28;20440;-71
2022/02/02 21:37:45;;;;;;;20.48;16.00;;;;;;;8.56;88.12;100141.50;5041709;28;20040;-73
2022/02/02 21:40:26;;;;;;;18.00;14.30;;;;;;;8.53;87.82;100152.13;5044648;28;20120;-72
2022/02/02 21:42:55;;;;;;;21.05;15.82;;;;;;;8.52;87.46;100147.81;5042528;28;20945;-72
2022/02/02 21:45:20;;;;;;;18.48;14.70;;;;;;;8.51;88.07;100143.44;5039506;28;20553;-72
2022/02/02 21:47:46;;;;;;;19.30;15.05;;;;;;;8.51;87.64;100132.94;5045176;28;20029;-72
2022/02/02 21:50:16;;;;;;;21.95;16.23;;;;;;;8.49;88.18;100137.38;5043079;28;20067;-71
2022/02/02 21:52:42;;;;;;;19.83;15.15;;;;;;;8.48;87.61;100136.53;5040069;28;20574;-71
2022/02/02 21:55:08;;;;;;;17.27;14.63;;;;;;;8.50;88.23;100141.75;5039095;28;20045;-71
2022/02/02 21:57:34;;;;;;;19.10;14.55;;;;;;;8.49;88.05;100142.63;5041054;28;20143;-71
2022/02/02 22:00:01;;;;;;;18.70;14.88;;;;;;;8.50;88.34;100142.59;5042937;28;20769;-71
2022/02/02 22:02:28;;;;;;;20.35;15.45;;;;;;;8.49;88.15;100150.53;5053329;28;20089;-71
2022/02/02 22:04:53;;;;;;;18.67;13.90;;;;;;;8.51;87.76;100152.19;5060836;28;20040;-71
2022/02/02 22:07:18;;;;;;;26.60;17.85;;;;;;;8.52;87.78;100146.03;5062567;28;20517;-72
2022/02/02 22:09:47;;;;;;;20.25;15.52;;;;;;;8.51;87.67;100144.31;5062451;28;20036;-71
2022/02/02 22:12:12;;;;;;;21.20;15.20;;;;;;;8.52;87.69;100135.53;5061351;28;22334;-72
2022/02/02 22:14:38;;;;;;;18.42;14.75;;;;;;;8.53;87.36;100136.38;5062748;28;20036;-71
2022/02/02 22:17:06;;;;;;;18.02;15.05;;;;;;;8.52;87.36;100135.53;5063043;28;20052;-70
2022/02/02 22:19:32;;;;;;;18.13;14.70;;;;;;;8.53;87.16;100136.38;5061475;28;20082;-72
2022/02/02 22:21:57;;;;;;;18.88;14.57;;;;;;;8.54;86.58;100148.59;5061143;28;20037;-71
2022/02/02 22:24:23;;;;;;;20.20;14.98;;;;;;;8.56;86.62;100149.41;5062110;28;20043;-71
2022/02/02 22:26:49;;;;;;;22.88;16.60;;;;;;;8.54;86.27;100145.97;5060905;28;20370;-73
2022/02/02 22:29:14;;;;;;;21.25;14.50;;;;;;;8.55;86.79;100148.53;5062361;28;20048;-72
2022/02/02 22:31:40;;;;;;;21.42;13.70;;;;;;;8.54;85.98;100149.47;5062342;28;20032;-72
2022/02/02 22:34:05;;;;;;;18.42;13.15;;;;;;;8.53;86.71;100150.38;5062981;28;20067;-72